createdAt,value
2019-06-26T00:00:18.435Z,10.88
2019-06-26T00:02:45.782Z,10.58
2019-06-26T00:05:12.917Z,10.25
2019-06-26T00:07:39.976Z,9.75
2019-06-26T00:10:07.953Z,10.03
2019-06-26T00:12:37.341Z,10.90
2019-06-26T00:15:04.681Z,10.48
2019-06-26T00:17:31.635Z,9.05
2019-06-26T00:19:58.835Z,9.68
2019-06-26T00:22:25.797Z,8.40
2019-06-26T00:24:52.768Z,9.08
2019-06-26T00:27:23.168Z,8.55
2019-06-26T00:29:50.163Z,8.93
2019-06-26T00:32:17.175Z,9.25
2019-06-26T00:34:44.204Z,8.18
2019-06-26T00:37:11.177Z,8.63
2019-06-26T00:39:38.148Z,8.35
2019-06-26T00:42:08.223Z,8.55
2019-06-26T00:44:35.214Z,9.40
2019-06-26T00:47:02.214Z,9.63
2019-06-26T00:49:32.721Z,8.95
2019-06-26T00:51:59.687Z,9.10
2019-06-26T00:54:26.685Z,12.18
2019-06-26T00:56:53.688Z,12.88
2019-06-26T00:59:20.670Z,12.10
2019-06-26T01:01:47.927Z,12.70
2019-06-26T01:04:19.595Z,12.18
2019-06-26T01:06:46.585Z,11.35
2019-06-26T01:09:14.094Z,12.35
2019-06-26T01:11:41.877Z,11.68
2019-06-26T01:14:08.915Z,13.13
2019-06-26T01:16:35.921Z,14.68
2019-06-26T01:19:03.343Z,12.30
2019-06-26T01:21:30.306Z,13.45
2019-06-26T01:23:57.397Z,13.18
2019-06-26T01:26:24.374Z,12.73
2019-06-26T01:28:51.360Z,13.83
2019-06-26T01:31:18.334Z,15.15
2019-06-26T01:33:45.369Z,18.93
2019-06-26T01:36:12.383Z,13.65
2019-06-26T01:38:39.359Z,13.10
2019-06-26T01:41:06.404Z,18.60
2019-06-26T01:43:33.439Z,16.15
2019-06-26T01:46:00.546Z,18.57
2019-06-26T01:48:27.540Z,19.48
2019-06-26T01:50:54.554Z,21.73
2019-06-26T01:53:21.538Z,18.55
2019-06-26T01:55:51.494Z,18.70
2019-06-26T01:58:18.554Z,17.42
2019-06-26T02:00:45.527Z,15.50
2019-06-26T02:03:14.997Z,12.65
2019-06-26T02:05:42.018Z,10.10
2019-06-26T02:08:09.013Z,10.08
2019-06-26T02:10:36.142Z,10.63
2019-06-26T02:13:03.157Z,9.28
2019-06-26T02:15:30.143Z,9.05
2019-06-26T02:17:59.479Z,9.80
2019-06-26T02:20:26.501Z,10.53
2019-06-26T02:22:53.491Z,11.03
2019-06-26T02:25:22.910Z,8.90
2019-06-26T02:27:49.891Z,8.28
2019-06-26T02:30:17.572Z,9.15
2019-06-26T02:32:44.586Z,10.70
2019-06-26T02:35:11.551Z,11.73
2019-06-26T02:37:38.592Z,10.20
2019-06-26T02:40:06.211Z,12.63
2019-06-26T02:42:33.197Z,10.30
2019-06-26T02:45:00.308Z,10.55
2019-06-26T02:47:27.308Z,8.78
2019-06-26T02:49:54.281Z,10.33
2019-06-26T02:52:21.341Z,9.20
2019-06-26T02:54:48.300Z,8.63
2019-06-26T02:57:15.352Z,10.55
2019-06-26T02:59:42.348Z,8.53
2019-06-26T03:02:09.332Z,10.73
2019-06-26T03:04:38.001Z,9.53
2019-06-26T03:07:04.989Z,9.63
2019-06-26T03:09:35.880Z,8.98
2019-06-26T03:12:02.877Z,9.60
2019-06-26T03:14:29.885Z,8.13
2019-06-26T03:17:01.408Z,8.13
2019-06-26T03:19:28.412Z,8.40
2019-06-26T03:21:55.409Z,8.20
2019-06-26T03:24:22.387Z,8.00
2019-06-26T03:26:49.366Z,9.50
2019-06-26T03:29:16.365Z,9.00
2019-06-26T03:31:44.543Z,9.03
2019-06-26T03:34:11.512Z,8.80
2019-06-26T03:36:38.510Z,9.57
2019-06-26T03:39:06.517Z,9.70
2019-06-26T03:41:33.513Z,7.67
2019-06-26T03:44:00.524Z,7.57
2019-06-26T03:46:27.513Z,8.85
2019-06-26T03:48:54.468Z,8.03
2019-06-26T03:51:21.462Z,8.70
2019-06-26T03:53:51.408Z,7.90
2019-06-26T03:56:18.371Z,8.55
2019-06-26T03:58:45.345Z,8.00
2019-06-26T04:01:12.331Z,8.83
2019-06-26T04:03:39.358Z,8.00
2019-06-26T04:06:06.331Z,8.57
2019-06-26T04:08:33.373Z,7.70
2019-06-26T04:11:00.397Z,7.57
2019-06-26T04:13:27.402Z,8.90
2019-06-26T04:15:57.285Z,7.60
2019-06-26T04:18:24.388Z,7.10
2019-06-26T04:20:51.363Z,8.50
2019-06-26T04:23:20.681Z,8.00
2019-06-26T04:25:47.684Z,7.50
2019-06-26T04:28:14.651Z,7.20
2019-06-26T04:30:41.633Z,6.30
2019-06-26T04:33:08.602Z,6.70
2019-06-26T04:35:35.562Z,6.50
2019-06-26T04:38:05.515Z,6.95
2019-06-26T04:40:32.491Z,6.00
2019-06-26T04:43:00.659Z,6.17
2019-06-26T04:45:27.676Z,7.27
2019-06-26T04:47:55.418Z,6.70
2019-06-26T04:50:22.419Z,6.90
2019-06-26T04:52:49.602Z,6.30
2019-06-26T04:55:16.689Z,6.10
2019-06-26T04:57:43.711Z,7.13
2019-06-26T05:00:14.206Z,5.78
2019-06-26T05:02:41.169Z,5.55
2019-06-26T05:05:08.364Z,7.15
2019-06-26T05:07:35.502Z,5.20
2019-06-26T05:10:03.474Z,6.97
2019-06-26T05:12:30.480Z,5.33
2019-06-26T05:14:57.537Z,5.12
2019-06-26T05:17:29.977Z,7.78
2019-06-26T05:19:57.005Z,6.62
2019-06-26T05:22:24.003Z,5.97
2019-06-26T05:24:51.033Z,5.22
2019-06-26T05:27:18.004Z,6.60
2019-06-26T05:29:44.957Z,6.30
2019-06-26T05:32:13.766Z,7.25
2019-06-26T05:34:40.792Z,6.67
2019-06-26T05:37:07.743Z,6.75
2019-06-26T05:39:34.738Z,6.65
2019-06-26T05:42:01.747Z,6.80
2019-06-26T05:44:28.697Z,8.65
2019-06-26T05:46:55.667Z,7.67
2019-06-26T05:49:22.664Z,6.30
2019-06-26T05:51:49.688Z,8.45
2019-06-26T05:54:16.810Z,7.72
2019-06-26T05:56:45.419Z,8.35
2019-06-26T05:59:17.945Z,8.48
2019-06-26T06:01:44.940Z,8.23
2019-06-26T06:04:11.942Z,8.18
2019-06-26T06:06:42.048Z,5.80
2019-06-26T06:09:07.906Z,8.25
2019-06-26T06:11:34.960Z,6.37
2019-06-26T06:14:01.936Z,9.23
2019-06-26T06:16:28.944Z,8.85
2019-06-26T06:18:55.928Z,9.50
2019-06-26T06:21:22.931Z,10.30
2019-06-26T06:23:49.949Z,10.30
2019-06-26T06:26:16.926Z,10.95
2019-06-26T06:28:43.894Z,11.50
2019-06-26T06:31:10.901Z,11.90
2019-06-26T06:33:37.955Z,13.43
2019-06-26T06:36:04.957Z,11.30
2019-06-26T06:38:36.478Z,9.73
2019-06-26T06:41:03.479Z,11.13
2019-06-26T06:43:30.549Z,10.60
2019-06-26T06:45:57.554Z,11.33
2019-06-26T06:48:24.625Z,10.00
2019-06-26T06:50:51.589Z,13.43
2019-06-26T06:53:18.638Z,13.23
2019-06-26T06:55:45.733Z,11.43
2019-06-26T06:58:12.727Z,14.07
2019-06-26T07:00:42.038Z,13.17
2019-06-26T07:03:09.003Z,14.60
2019-06-26T07:05:35.973Z,14.23
2019-06-26T07:08:03.006Z,11.70
2019-06-26T07:10:30.310Z,12.83
2019-06-26T07:12:57.344Z,12.63
2019-06-26T07:15:24.862Z,14.03
2019-06-26T07:17:52.275Z,14.83
2019-06-26T07:20:19.285Z,15.07
2019-06-26T07:22:50.007Z,15.20
2019-06-26T07:25:17.079Z,15.20
2019-06-26T07:27:44.192Z,14.10
2019-06-26T07:30:13.780Z,13.73
2019-06-26T07:32:40.769Z,14.23
2019-06-26T07:35:07.745Z,13.20
2019-06-26T07:37:34.766Z,12.07
2019-06-26T07:40:02.514Z,13.57
2019-06-26T07:42:29.698Z,11.73
2019-06-26T07:44:56.693Z,14.47
2019-06-26T07:47:41.544Z,11.83
2019-06-26T07:49:52.609Z,13.13
2019-06-26T07:52:19.639Z,14.23
2019-06-26T07:54:49.179Z,14.67
2019-06-26T07:57:16.183Z,14.77
2019-06-26T07:59:43.150Z,13.97
2019-06-26T08:02:12.406Z,12.50
2019-06-26T08:04:39.432Z,14.67
2019-06-26T08:07:06.464Z,16.60
2019-06-26T08:09:33.553Z,13.70
2019-06-26T08:12:00.528Z,15.17
2019-06-26T08:14:27.506Z,15.23
2019-06-26T08:16:54.505Z,14.30
2019-06-26T08:19:21.512Z,15.37
2019-06-26T08:21:48.502Z,14.70
2019-06-26T08:24:15.577Z,15.87
2019-06-26T08:26:42.568Z,12.83
2019-06-26T08:29:09.526Z,12.47
2019-06-26T08:31:40.077Z,12.23
2019-06-26T08:34:07.079Z,13.17
2019-06-26T08:36:34.063Z,13.83
2019-06-26T08:39:06.713Z,11.30
2019-06-26T08:41:33.736Z,10.73
2019-06-26T08:44:00.729Z,12.07
2019-06-26T08:46:27.742Z,10.53
2019-06-26T08:48:54.739Z,10.17
2019-06-26T08:51:21.737Z,10.13
2019-06-26T08:53:48.705Z,10.00
2019-06-26T08:56:15.677Z,11.07
2019-06-26T08:58:42.713Z,11.53
2019-06-26T09:01:09.662Z,9.90
2019-06-26T09:03:36.628Z,10.87
2019-06-26T09:06:03.661Z,9.50
2019-06-26T09:08:30.894Z,8.93
2019-06-26T09:10:57.882Z,10.63
2019-06-26T09:13:29.532Z,9.77
2019-06-26T09:15:56.567Z,9.30
2019-06-26T09:18:35.054Z,9.00
2019-06-26T09:20:52.457Z,9.77
2019-06-26T09:23:19.447Z,9.87
2019-06-26T09:25:46.417Z,9.57
2019-06-26T09:28:13.410Z,9.47
2019-06-26T09:30:43.239Z,8.53
2019-06-26T09:33:10.208Z,8.23
2019-06-26T09:35:37.218Z,9.50
2019-06-26T09:38:05.479Z,9.27
2019-06-26T09:40:32.490Z,7.60
2019-06-26T09:42:59.464Z,8.93
2019-06-26T09:45:26.422Z,7.93
2019-06-26T09:47:53.404Z,7.80
2019-06-26T09:50:20.400Z,7.93
2019-06-26T09:52:53.627Z,7.10
2019-06-26T09:55:20.624Z,7.70
2019-06-26T09:57:47.769Z,6.87
2019-06-26T10:00:18.262Z,6.53
2019-06-26T10:02:45.268Z,5.90
2019-06-26T10:05:12.662Z,5.50
2019-06-26T10:07:39.646Z,5.13
2019-06-26T10:10:06.707Z,5.23
2019-06-26T10:12:33.661Z,5.03
2019-06-26T10:15:00.655Z,4.80
2019-06-26T10:17:27.676Z,4.80
2019-06-26T10:19:54.630Z,4.90
2019-06-26T10:22:21.656Z,5.03
2019-06-26T10:24:50.906Z,6.07
2019-06-26T10:27:17.865Z,5.77
2019-06-26T10:29:44.897Z,5.73
2019-06-26T10:32:20.591Z,5.47
2019-06-26T10:34:47.800Z,4.80
2019-06-26T10:37:14.809Z,4.40
2019-06-26T10:39:41.816Z,3.83
2019-06-26T10:42:08.819Z,4.57
2019-06-26T10:44:35.812Z,4.60
2019-06-26T10:47:02.801Z,3.87
2019-06-26T10:49:29.815Z,4.33
2019-06-26T10:51:56.854Z,4.37
2019-06-26T10:54:23.798Z,4.27
2019-06-26T10:56:50.772Z,3.63
2019-06-26T10:59:17.736Z,3.27
2019-06-26T11:01:44.802Z,3.60
2019-06-26T11:04:11.809Z,3.47
2019-06-26T11:06:38.806Z,3.10
2019-06-26T11:09:06.668Z,3.63
2019-06-26T11:11:33.625Z,4.20
2019-06-26T11:14:02.892Z,3.63
2019-06-26T11:16:29.864Z,3.67
2019-06-26T11:18:56.842Z,3.83
2019-06-26T11:21:23.814Z,4.00
2019-06-26T11:23:54.253Z,4.27
2019-06-26T11:26:21.232Z,3.83
2019-06-26T11:28:48.222Z,4.00
2019-06-26T11:31:16.923Z,3.60
2019-06-26T11:33:43.923Z,3.20
2019-06-26T11:36:10.945Z,3.43
2019-06-26T11:38:40.156Z,3.20
2019-06-26T11:41:07.153Z,3.60
2019-06-26T11:43:34.213Z,2.87
2019-06-26T11:46:04.073Z,3.10
2019-06-26T11:48:31.083Z,3.70
2019-06-26T11:50:58.089Z,3.50
2019-06-26T11:53:25.130Z,3.27
2019-06-26T11:55:52.185Z,3.83
2019-06-26T11:58:19.356Z,3.93
2019-06-26T12:00:46.328Z,4.17
2019-06-26T12:03:13.512Z,3.30
2019-06-26T12:05:40.529Z,3.40
2019-06-26T12:08:07.645Z,3.50
2019-06-26T12:10:34.900Z,3.30
2019-06-26T12:13:04.245Z,2.67
2019-06-26T12:15:30.915Z,3.00
2019-06-26T12:17:57.903Z,3.10
2019-06-26T12:20:25.219Z,2.90
2019-06-26T12:22:52.588Z,3.10
2019-06-26T12:25:19.626Z,3.90
2019-06-26T12:27:46.597Z,3.43
2019-06-26T12:30:17.240Z,2.90
2019-06-26T12:33:01.491Z,2.83
2019-06-26T12:35:13.360Z,2.63
2019-06-26T12:37:40.361Z,2.40
2019-06-26T12:40:07.830Z,3.23
2019-06-26T12:42:34.835Z,2.83
2019-06-26T12:45:01.852Z,2.87
2019-06-26T12:47:28.848Z,2.80
2019-06-26T12:49:55.828Z,3.03
2019-06-26T12:52:22.853Z,3.40
2019-06-26T12:54:49.803Z,2.83
2019-06-26T12:57:20.871Z,2.80
2019-06-26T12:59:57.390Z,2.77
2019-06-26T13:02:18.813Z,3.03
2019-06-26T13:04:45.916Z,2.30
2019-06-26T13:07:12.855Z,2.33
2019-06-26T13:09:39.895Z,2.47
2019-06-26T13:12:06.915Z,2.70
2019-06-26T13:14:33.899Z,1.97
2019-06-26T13:17:01.015Z,2.10
2019-06-26T13:19:28.016Z,2.20
2019-06-26T13:21:54.998Z,2.40
2019-06-26T13:24:22.040Z,1.90
2019-06-26T13:26:49.012Z,2.03
2019-06-26T13:29:16.030Z,2.10
2019-06-26T13:31:46.245Z,1.63
2019-06-26T13:34:14.552Z,1.90
2019-06-26T13:36:41.576Z,1.80
2019-06-26T13:39:08.566Z,2.20
2019-06-26T13:41:37.320Z,1.97
2019-06-26T13:44:04.314Z,2.00
2019-06-26T13:46:31.284Z,1.80
2019-06-26T13:49:02.147Z,2.20
2019-06-26T13:51:29.182Z,2.27
2019-06-26T13:53:56.297Z,1.83
2019-06-26T13:56:25.634Z,1.87
2019-06-26T13:58:52.690Z,2.00
2019-06-26T14:01:22.919Z,1.90
2019-06-26T14:03:48.688Z,2.00
2019-06-26T14:06:15.696Z,2.30
2019-06-26T14:08:42.673Z,1.80
2019-06-26T14:11:10.877Z,2.03
2019-06-26T14:13:41.541Z,2.43
2019-06-26T14:16:06.763Z,2.17
2019-06-26T14:18:33.739Z,2.13
2019-06-26T14:21:00.781Z,2.47
2019-06-26T14:23:28.967Z,1.97
2019-06-26T14:25:55.901Z,2.53
2019-06-26T14:28:24.602Z,2.13
2019-06-26T14:30:51.575Z,2.57
2019-06-26T14:33:18.586Z,2.10
2019-06-26T14:35:45.577Z,2.23
2019-06-26T14:38:12.576Z,2.20
2019-06-26T14:40:39.612Z,2.30
2019-06-26T14:43:10.215Z,2.20
2019-06-26T14:45:37.207Z,2.60
2019-06-26T14:48:04.213Z,2.30
2019-06-26T14:50:31.189Z,2.10
2019-06-26T14:52:58.165Z,2.33
2019-06-26T14:55:25.202Z,2.23
2019-06-26T14:57:52.179Z,2.70
2019-06-26T15:00:19.273Z,2.60
2019-06-26T15:02:46.268Z,2.40
2019-06-26T15:05:13.278Z,2.50
2019-06-26T15:07:40.244Z,2.33
2019-06-26T15:10:07.805Z,2.20
2019-06-26T15:12:34.839Z,2.30
2019-06-26T15:15:01.945Z,2.87
2019-06-26T15:17:28.976Z,2.53
2019-06-26T15:19:59.093Z,2.70
2019-06-26T15:22:26.076Z,3.17
2019-06-26T15:24:53.097Z,2.53
2019-06-26T15:27:20.107Z,2.13
2019-06-26T15:29:47.086Z,2.23
2019-06-26T15:32:14.114Z,3.00
2019-06-26T15:34:41.087Z,1.80
2019-06-26T15:37:08.054Z,2.07
2019-06-26T15:39:35.055Z,1.80
2019-06-26T15:42:02.057Z,1.77
2019-06-26T15:44:29.052Z,1.67
2019-06-26T15:46:56.111Z,1.70
2019-06-26T15:49:23.208Z,1.83
2019-06-26T15:51:50.201Z,2.10
2019-06-26T15:54:17.190Z,2.00
2019-06-26T15:56:44.200Z,2.30
2019-06-26T15:59:11.164Z,2.10
2019-06-26T16:01:38.152Z,2.30
2019-06-26T16:04:09.788Z,2.30
2019-06-26T16:06:36.818Z,2.03
2019-06-26T16:09:05.045Z,1.93
2019-06-26T16:11:32.125Z,2.27
2019-06-26T16:13:59.135Z,2.20
2019-06-26T16:16:26.179Z,2.20
2019-06-26T16:18:58.955Z,2.10
2019-06-26T16:21:25.943Z,2.43
2019-06-26T16:23:52.934Z,2.20
2019-06-26T16:26:19.958Z,1.90
2019-06-26T16:28:48.149Z,1.70
2019-06-26T16:31:15.207Z,1.90
2019-06-26T16:33:42.183Z,2.37
2019-06-26T16:36:09.158Z,2.63
2019-06-26T16:38:36.148Z,2.40
2019-06-26T16:41:03.249Z,2.27
2019-06-26T16:43:30.234Z,2.60
2019-06-26T16:45:57.460Z,2.30
2019-06-26T16:48:24.496Z,2.70
2019-06-26T16:50:51.486Z,2.57
2019-06-26T16:53:18.508Z,2.90
2019-06-26T16:55:45.499Z,2.80
2019-06-26T16:58:13.753Z,3.10
2019-06-26T17:00:40.759Z,2.63
2019-06-26T17:03:07.739Z,2.50
2019-06-26T17:05:34.734Z,3.17
2019-06-26T17:08:01.775Z,3.00
2019-06-26T17:10:28.798Z,4.63
2019-06-26T17:12:55.778Z,3.40
2019-06-26T17:15:22.750Z,3.40
2019-06-26T17:17:49.760Z,3.10
2019-06-26T17:20:17.055Z,2.43
2019-06-26T17:22:44.038Z,2.90
2019-06-26T17:25:11.203Z,3.30
2019-06-26T17:27:38.245Z,3.70
2019-06-26T17:30:05.467Z,3.20
2019-06-26T17:32:32.431Z,3.13
2019-06-26T17:34:59.523Z,3.20
2019-06-26T17:37:26.546Z,3.10
2019-06-26T17:39:53.530Z,3.07
2019-06-26T17:42:20.603Z,3.70
2019-06-26T17:44:47.592Z,3.23
2019-06-26T17:47:14.581Z,3.20
2019-06-26T17:49:45.526Z,3.03
2019-06-26T17:52:12.501Z,2.70
2019-06-26T17:54:39.493Z,2.87
2019-06-26T17:57:06.507Z,3.00
2019-06-26T17:59:33.518Z,3.10
2019-06-26T18:02:00.516Z,3.33
2019-06-26T18:04:27.534Z,2.90
2019-06-26T18:06:54.606Z,2.67
2019-06-26T18:09:21.616Z,2.80
2019-06-26T18:11:48.640Z,2.77
2019-06-26T18:14:15.686Z,3.03
2019-06-26T18:16:47.126Z,3.27
2019-06-26T18:19:14.145Z,3.30
2019-06-26T18:21:41.134Z,3.23
2019-06-26T18:24:10.765Z,2.80
2019-06-26T18:26:37.746Z,3.17
2019-06-26T18:29:04.763Z,3.10
2019-06-26T18:31:31.765Z,2.80
2019-06-26T18:33:58.756Z,3.60
2019-06-26T18:36:26.976Z,2.37
2019-06-26T18:38:53.966Z,3.00
2019-06-26T18:41:23.640Z,2.50
2019-06-26T18:43:51.012Z,2.30
2019-06-26T18:46:18.013Z,2.77
2019-06-26T18:48:45.146Z,2.60
2019-06-26T18:51:14.618Z,3.07
2019-06-26T18:53:53.128Z,2.70
2019-06-26T18:56:10.500Z,2.90
2019-06-26T18:58:41.189Z,2.47
2019-06-26T19:01:08.187Z,2.70
2019-06-26T19:03:35.232Z,2.90
2019-06-26T19:06:02.323Z,2.87
2019-06-26T19:08:29.299Z,2.70
2019-06-26T19:10:56.317Z,3.00
2019-06-26T19:13:23.366Z,2.73
2019-06-26T19:15:50.321Z,2.30
2019-06-26T19:18:17.319Z,2.90
2019-06-26T19:20:44.343Z,2.60
2019-06-26T19:23:11.306Z,2.50
2019-06-26T19:25:38.284Z,2.80
2019-06-26T19:28:05.294Z,2.50
2019-06-26T19:30:32.245Z,2.90
2019-06-26T19:32:59.195Z,3.20
2019-06-26T19:35:26.213Z,3.10
2019-06-26T19:37:53.206Z,3.37
2019-06-26T19:40:23.779Z,3.00
2019-06-26T19:42:49.387Z,2.80
2019-06-26T19:45:16.769Z,3.43
2019-06-26T19:47:43.730Z,3.27
2019-06-26T19:50:11.829Z,3.40
2019-06-26T19:52:38.795Z,3.47
2019-06-26T19:55:06.032Z,3.37
2019-06-26T19:57:35.841Z,3.10
2019-06-26T20:00:03.424Z,3.33
2019-06-26T20:02:30.522Z,3.40
2019-06-26T20:04:59.860Z,2.97
2019-06-26T20:07:26.895Z,3.20
2019-06-26T20:09:53.894Z,3.20
2019-06-26T20:12:21.014Z,3.13
2019-06-26T20:14:48.034Z,3.60
2019-06-26T20:17:15.023Z,3.13
2019-06-26T20:19:45.040Z,3.50
2019-06-26T20:22:12.130Z,3.00
2019-06-26T20:24:44.187Z,2.90
2019-06-26T20:27:07.996Z,3.20
2019-06-26T20:29:35.061Z,3.13
2019-06-26T20:32:02.023Z,3.33
2019-06-26T20:34:29.283Z,3.07
2019-06-26T20:36:56.414Z,2.80
2019-06-26T20:39:23.417Z,3.27
2019-06-26T20:41:52.726Z,2.80
2019-06-26T20:44:19.667Z,3.00
2019-06-26T20:46:46.701Z,2.90
2019-06-26T20:49:13.668Z,3.30
2019-06-26T20:51:40.628Z,3.07
2019-06-26T20:54:07.618Z,3.13
2019-06-26T20:56:37.673Z,3.30
2019-06-26T20:59:04.694Z,3.53
2019-06-26T21:01:31.653Z,3.37
2019-06-26T21:03:58.634Z,3.03
2019-06-26T21:06:25.650Z,3.70
2019-06-26T21:08:52.617Z,3.57
2019-06-26T21:11:19.666Z,3.13
2019-06-26T21:13:46.643Z,3.10
2019-06-26T21:16:13.620Z,3.10
2019-06-26T21:18:40.698Z,3.27
2019-06-26T21:21:09.953Z,2.80
2019-06-26T21:23:36.956Z,3.17
2019-06-26T21:26:03.967Z,3.77
2019-06-26T21:28:32.163Z,3.80
2019-06-26T21:30:59.177Z,3.20
2019-06-26T21:33:26.119Z,3.47
2019-06-26T21:35:55.424Z,3.07
2019-06-26T21:38:22.419Z,3.37
2019-06-26T21:40:49.375Z,3.13
2019-06-26T21:43:16.412Z,3.20
2019-06-26T21:45:43.384Z,3.20
2019-06-26T21:48:10.352Z,3.37
2019-06-26T21:50:39.660Z,3.10
2019-06-26T21:53:06.648Z,3.27
2019-06-26T21:55:35.067Z,3.23
2019-06-26T21:58:02.545Z,3.30
2019-06-26T22:00:36.131Z,3.17
2019-06-26T22:03:03.263Z,3.00
2019-06-26T22:05:30.255Z,3.70
2019-06-26T22:07:57.262Z,3.87
2019-06-26T22:10:24.455Z,3.60
2019-06-26T22:12:51.497Z,3.50
2019-06-26T22:15:18.524Z,3.40
2019-06-26T22:17:45.501Z,3.70
2019-06-26T22:20:14.723Z,4.13
2019-06-26T22:22:41.719Z,3.60
2019-06-26T22:25:08.992Z,3.77
2019-06-26T22:27:36.032Z,2.97
2019-06-26T22:30:03.783Z,3.07
2019-06-26T22:32:30.746Z,3.40
2019-06-26T22:34:57.761Z,3.40
2019-06-26T22:37:24.843Z,3.20
2019-06-26T22:39:51.844Z,3.50
2019-06-26T22:42:18.811Z,3.40
2019-06-26T22:44:47.031Z,3.00
2019-06-26T22:47:13.989Z,3.20
2019-06-26T22:49:40.945Z,3.57
2019-06-26T22:52:07.912Z,3.47
2019-06-26T22:54:34.934Z,2.80
2019-06-26T22:57:01.912Z,3.43
2019-06-26T22:59:30.608Z,3.60
2019-06-26T23:01:58.000Z,3.40
2019-06-26T23:04:24.976Z,3.60
2019-06-26T23:06:52.017Z,3.40
2019-06-26T23:09:18.990Z,3.60
2019-06-26T23:11:46.007Z,2.90
2019-06-26T23:14:14.829Z,2.60
2019-06-26T23:16:41.809Z,3.20
2019-06-26T23:19:08.783Z,3.00
2019-06-26T23:21:36.891Z,2.80
2019-06-26T23:24:03.911Z,3.30
2019-06-26T23:26:30.901Z,2.93
2019-06-26T23:28:57.923Z,3.13
2019-06-26T23:31:25.077Z,2.53
2019-06-26T23:33:52.127Z,2.80
2019-06-26T23:36:22.318Z,3.20
2019-06-26T23:38:49.294Z,3.07
2019-06-26T23:41:18.094Z,3.20
2019-06-26T23:43:45.147Z,2.77
2019-06-26T23:46:12.111Z,2.37
2019-06-26T23:48:39.125Z,2.87
2019-06-26T23:51:06.092Z,2.70
2019-06-26T23:53:33.055Z,2.97
2019-06-26T23:56:00.070Z,2.73
2019-06-26T23:58:28.155Z,2.90
